地図

経路データ

SID SEASON NUMBER BASIN SUBBASIN NAME ISO_TIME NATURE LAT LON WMO_WIND WMO_PRES WMO_AGENCY TRACK_TYPE DIST2LAND LANDFALL IFLAG USA_AGENCY USA_ATCF_ID USA_LAT USA_LON USA_RECORD USA_STATUS USA_WIND USA_PRES USA_SSHS USA_R34_NE USA_R34_SE USA_R34_SW USA_R34_NW USA_R50_NE USA_R50_SE USA_R50_SW USA_R50_NW USA_R64_NE USA_R64_SE USA_R64_SW USA_R64_NW USA_POCI USA_ROCI USA_RMW USA_EYE TOKYO_LAT TOKYO_LON TOKYO_GRADE TOKYO_WIND TOKYO_PRES TOKYO_R50_DIR TOKYO_R50_LONG TOKYO_R50_SHORT TOKYO_R30_DIR TOKYO_R30_LONG TOKYO_R30_SHORT TOKYO_LAND CMA_LAT CMA_LON CMA_CAT CMA_WIND CMA_PRES HKO_LAT HKO_LON HKO_CAT HKO_WIND HKO_PRES NEWDELHI_LAT NEWDELHI_LON NEWDELHI_GRADE NEWDELHI_WIND NEWDELHI_PRES NEWDELHI_CI NEWDELHI_DP NEWDELHI_POCI REUNION_LAT REUNION_LON REUNION_TYPE REUNION_WIND REUNION_PRES REUNION_TNUM REUNION_CI REUNION_RMW REUNION_R34_NE REUNION_R34_SE REUNION_R34_SW REUNION_R34_NW REUNION_R50_NE REUNION_R50_SE REUNION_R50_SW REUNION_R50_NW REUNION_R64_NE REUNION_R64_SE REUNION_R64_SW REUNION_R64_NW BOM_LAT BOM_LON BOM_TYPE BOM_WIND BOM_PRES BOM_TNUM BOM_CI BOM_RMW BOM_R34_NE BOM_R34_SE BOM_R34_SW BOM_R34_NW BOM_R50_NE BOM_R50_SE BOM_R50_SW BOM_R50_NW BOM_R64_NE BOM_R64_SE BOM_R64_SW BOM_R64_NW BOM_ROCI BOM_POCI BOM_EYE BOM_POS_METHOD BOM_PRES_METHOD NADI_LAT NADI_LON NADI_CAT NADI_WIND NADI_PRES WELLINGTON_LAT WELLINGTON_LON WELLINGTON_WIND WELLINGTON_PRES DS824_LAT DS824_LON DS824_STAGE DS824_WIND DS824_PRES TD9636_LAT TD9636_LON TD9636_STAGE TD9636_WIND TD9636_PRES TD9635_LAT TD9635_LON TD9635_WIND TD9635_PRES TD9635_ROCI NEUMANN_LAT NEUMANN_LON NEUMANN_CLASS NEUMANN_WIND NEUMANN_PRES MLC_LAT MLC_LON MLC_CLASS MLC_WIND MLC_PRES USA_GUST BOM_GUST BOM_GUST_PER REUNION_GUST REUNION_GUST_PER USA_SEAHGT USA_SEARAD_NE USA_SEARAD_SE USA_SEARAD_SW USA_SEARAD_NW STORM_SPEED STORM_DIR
1908252N15308 1908 37 NA NA NOT_NAMED 1908-09-07 12:00:00 TS 15.4000 -51.7000 40 hurdat_atl main 1098 1095 O_____________ hurdat_atl AL061908 15.4000 -51.7000 TS 40 0 12 296
1908252N15308 1908 37 NA NA NOT_NAMED 1908-09-07 15:00:00 TS 15.6603 -52.2597 main 1095 1061 P_____________ AL061908 15.6603 -52.2597 TS 40 0 12 295
1908252N15308 1908 37 NA NA NOT_NAMED 1908-09-07 18:00:00 TS 15.9000 -52.8000 40 hurdat_atl main 1061 1029 O_____________ hurdat_atl AL061908 15.9000 -52.8000 TS 40 0 11 294
1908252N15308 1908 37 NA NA NOT_NAMED 1908-09-07 21:00:00 TS 16.1073 -53.3077 main 1029 999 P_____________ AL061908 16.1073 -53.3077 TS 40 0 10 293
1908252N15308 1908 37 NA NA NOT_NAMED 1908-09-08 00:00:00 TS 16.3000 -53.8000 40 hurdat_atl main 999 972 O_____________ hurdat_atl AL061908 16.3000 -53.8000 TS 40 0 10 293
1908252N15308 1908 37 NA NA NOT_NAMED 1908-09-08 03:00:00 TS 16.5074 -54.3000 main 972 948 P_____________ AL061908 16.5074 -54.3000 TS 40 0 10 293
1908252N15308 1908 37 NA NA NOT_NAMED 1908-09-08 06:00:00 TS 16.7000 -54.8000 40 hurdat_atl main 948 919 O_____________ hurdat_atl AL061908 16.7000 -54.8000 TS 40 0 10 290
1908252N15308 1908 37 NA NA NOT_NAMED 1908-09-08 09:00:00 TS 16.8650 -55.3150 main 927 901 P_____________ AL061908 16.8650 -55.3150 TS 42 0 10 287
1908252N15308 1908 37 NA NA NOT_NAMED 1908-09-08 12:00:00 TS 17.0000 -55.8000 45 hurdat_atl main 901 884 O_____________ hurdat_atl AL061908 17.0000 -55.8000 TS 45 0 9 286
1908252N15308 1908 37 NA NA NOT_NAMED 1908-09-08 15:00:00 TS 17.1074 -56.2226 main 884 868 P_____________ AL061908 17.1074 -56.2226 TS 45 0 8 285
1908252N15308 1908 37 NA NA NOT_NAMED 1908-09-08 18:00:00 TS 17.2000 -56.6000 45 hurdat_atl main 868 857 O_____________ hurdat_atl AL061908 17.2000 -56.6000 TS 45 0 7 285
1908252N15308 1908 37 NA NA NOT_NAMED 1908-09-08 21:00:00 TS 17.2999 -56.9576 main 855 849 P_____________ AL061908 17.2999 -56.9576 TS 45 0 7 287
1908252N15308 1908 37 NA NA NOT_NAMED 1908-09-09 00:00:00 TS 17.4000 -57.3000 45 hurdat_atl main 849 839 O_____________ hurdat_atl AL061908 17.4000 -57.3000 TS 45 0 6 287
1908252N15308 1908 37 NA NA NOT_NAMED 1908-09-09 03:00:00 TS 17.4845 -57.5903 main 844 807 P_____________ AL061908 17.4845 -57.5903 TS 47 0 7 287
1908252N15308 1908 37 NA NA NOT_NAMED 1908-09-09 06:00:00 TS 17.6000 -58.0000 50 hurdat_atl main 807 731 O_____________ hurdat_atl AL061908 17.6000 -58.0000 TS 50 0 11 286
1908252N15308 1908 37 NA NA NOT_NAMED 1908-09-09 09:00:00 TS 17.7932 -58.7272 main 731 645 P_____________ AL061908 17.7932 -58.7272 TS 52 0 15 286
1908252N15308 1908 37 NA NA NOT_NAMED 1908-09-09 12:00:00 TS 18.0000 -59.5000 55 hurdat_atl main 645 602 O_____________ hurdat_atl AL061908 18.0000 -59.5000 TS 55 0 12 287
1908252N15308 1908 37 NA NA NOT_NAMED 1908-09-09 15:00:00 TS 18.1482 -59.9258 main 602 538 P_____________ AL061908 18.1482 -59.9258 TS 55 0 10 288
1908252N15308 1908 37 NA NA NOT_NAMED 1908-09-09 18:00:00 TS 18.3000 -60.5000 55 hurdat_atl main 538 422 O_____________ hurdat_atl AL061908 18.3000 -60.5000 TS 55 0 17 282
1908252N15308 1908 37 NA NA NOT_NAMED 1908-09-09 21:00:00 TS 18.5016 -61.6746 main 411 286 P_____________ AL061908 18.5016 -61.6746 TS 57 0 24 280
1908252N15308 1908 37 NA CS NOT_NAMED 1908-09-10 00:00:00 TS 18.7000 -63.0000 60 hurdat_atl main 276 174 O_____________ hurdat_atl AL061908 18.7000 -63.0000 TS 60 0 23 279
1908252N15308 1908 37 NA CS NOT_NAMED 1908-09-10 03:00:00 TS 18.8490 -64.0529 main 164 99 P_____________ AL061908 18.8490 -64.0529 TS 60 0 19 279
1908252N15308 1908 37 NA NA NOT_NAMED 1908-09-10 06:00:00 TS 19.0000 -65.0000 60 hurdat_atl main 92 78 O_____________ hurdat_atl AL061908 19.0000 -65.0000 TS 60 0 18 281
1908252N15308 1908 37 NA NA NOT_NAMED 1908-09-10 09:00:00 TS 19.1999 -65.9598 main 89 89 P_____________ AL061908 19.1999 -65.9598 TS 60 0 17 283
1908252N15308 1908 37 NA NA NOT_NAMED 1908-09-10 12:00:00 TS 19.4000 -66.8000 60 hurdat_atl main 111 111 O_____________ hurdat_atl AL061908 19.4000 -66.8000 TS 60 0 15 285
1908252N15308 1908 37 NA NA NOT_NAMED 1908-09-10 15:00:00 TS 19.5718 -67.4452 main 134 118 P_____________ AL061908 19.5718 -67.4452 TS 60 0 12 285
1908252N15308 1908 37 NA NA NOT_NAMED 1908-09-10 18:00:00 TS 19.7000 -68.0000 60 hurdat_atl main 118 92 O_____________ hurdat_atl AL061908 19.7000 -68.0000 TS 60 0 11 279
1908252N15308 1908 37 NA NA NOT_NAMED 1908-09-10 21:00:00 TS 19.7496 -68.5779 main 84 56 P_____________ AL061908 19.7496 -68.5779 TS 60 0 11 275
1908252N15308 1908 37 NA NA NOT_NAMED 1908-09-11 00:00:00 TS 19.8000 -69.2000 60 hurdat_atl main 56 35 O_____________ hurdat_atl AL061908 19.8000 -69.2000 TS 60 0 13 278
1908252N15308 1908 37 NA NA NOT_NAMED 1908-09-11 03:00:00 TS 19.9276 -69.9425 main 35 24 P_____________ AL061908 19.9276 -69.9425 TS 62 0 14 282
1908252N15308 1908 37 NA NA NOT_NAMED 1908-09-11 06:00:00 TS 20.1000 -70.7000 65 hurdat_atl main 33 33 O_____________ hurdat_atl AL061908 20.1000 -70.7000 HU 65 1 14 285
1908252N15308 1908 37 NA NA NOT_NAMED 1908-09-11 09:00:00 TS 20.2849 -71.3951 main 55 55 P_____________ AL061908 20.2849 -71.3951 HU 70 1 13 288
1908252N15308 1908 37 NA NA NOT_NAMED 1908-09-11 12:00:00 TS 20.5000 -72.0000 75 hurdat_atl main 81 70 O_____________ hurdat_atl AL061908 20.5000 -72.0000 HU 75 1 11 294
1908252N15308 1908 37 NA NA NOT_NAMED 1908-09-11 15:00:00 TS 20.7422 -72.4877 main 70 20 P_____________ AL061908 20.7422 -72.4877 HU 80 1 10 301
1908252N15308 1908 37 NA NA NOT_NAMED 1908-09-11 18:00:00 TS 21.0000 -72.9000 85 hurdat_atl main 20 0 O_____________ hurdat_atl AL061908 21.0000 -72.9000 HU 85 2 9 303
1908252N15308 1908 37 NA NA NOT_NAMED 1908-09-11 21:00:00 TS 21.2574 -73.3225 main 15 15 P_____________ AL061908 21.2574 -73.3225 HU 90 2 9 304
1908252N15308 1908 37 NA NA NOT_NAMED 1908-09-12 00:00:00 TS 21.5000 -73.7000 95 hurdat_atl main 44 44 O_____________ hurdat_atl AL061908 21.5000 -73.7000 HU 95 2 8 304
1908252N15308 1908 37 NA NA NOT_NAMED 1908-09-12 03:00:00 TS 21.6923 -74.0078 main 73 73 P_____________ AL061908 21.6923 -74.0078 HU 95 2 7 306
1908252N15308 1908 37 NA NA NOT_NAMED 1908-09-12 06:00:00 TS 21.9000 -74.3000 95 hurdat_atl main 108 108 O_____________ hurdat_atl AL061908 21.9000 -74.3000 HU 95 2 8 310
1908252N15308 1908 37 NA NA NOT_NAMED 1908-09-12 09:00:00 TS 22.2001 -74.6573 main 160 160 P_____________ AL061908 22.2001 -74.6573 HU 97 3 9 313
1908252N15308 1908 37 NA NA NOT_NAMED 1908-09-12 12:00:00 TS 22.5000 -75.0000 100 hurdat_atl main 178 175 O_____________ hurdat_atl AL061908 22.5000 -75.0000 HU 100 3 8 312
1908252N15308 1908 37 NA NA NOT_NAMED 1908-09-12 15:00:00 TS 22.7224 -75.2801 main 191 191 P_____________ AL061908 22.7224 -75.2801 HU 100 3 6 311
1908252N15308 1908 37 NA NA NOT_NAMED 1908-09-12 18:00:00 TS 22.9000 -75.5000 100 hurdat_atl main 203 199 O_____________ hurdat_atl AL061908 22.9000 -75.5000 HU 100 3 5 312
1908252N15308 1908 37 NA NA NOT_NAMED 1908-09-12 21:00:00 TS 23.0349 -75.6652 main 204 204 P_____________ AL061908 23.0349 -75.6652 HU 102 3 4 317
1908252N15308 1908 37 NA NA NOT_NAMED 1908-09-13 00:00:00 TS 23.2000 -75.8000 105 hurdat_atl main 214 205 O_____________ hurdat_atl AL061908 23.2000 -75.8000 HU 105 3 5 327
1908252N15308 1908 37 NA NA NOT_NAMED 1908-09-13 03:00:00 TS 23.4700 -75.9723 main 205 180 P_____________ AL061908 23.4700 -75.9723 HU 105 3 7 335
1908252N15308 1908 37 NA NA NOT_NAMED 1908-09-13 06:00:00 TS 23.8000 -76.1000 105 hurdat_atl main 180 168 O_____________ hurdat_atl AL061908 23.8000 -76.1000 HU 105 3 7 347
1908252N15308 1908 37 NA NA NOT_NAMED 1908-09-13 09:00:00 TS 24.1500 -76.1376 main 168 161 P_____________ AL061908 24.1500 -76.1376 HU 105 3 7 0
1908252N15308 1908 37 NA NA NOT_NAMED 1908-09-13 12:00:00 TS 24.5000 -76.1000 105 hurdat_atl main 161 161 O_____________ hurdat_atl AL061908 24.5000 -76.1000 HU 105 3 7 8
1908252N15308 1908 37 NA NA NOT_NAMED 1908-09-13 15:00:00 TS 24.8075 -76.0299 main 174 174 P_____________ AL061908 24.8075 -76.0299 HU 105 3 6 17
1908252N15308 1908 37 NA NA NOT_NAMED 1908-09-13 18:00:00 TS 25.1000 -75.9000 105 hurdat_atl main 193 193 O_____________ hurdat_atl AL061908 25.1000 -75.9000 HU 105 3 7 25
1908252N15308 1908 37 NA NA NOT_NAMED 1908-09-13 21:00:00 TS 25.4075 -75.7150 main 225 225 P_____________ AL061908 25.4075 -75.7150 HU 105 3 7 31
1908252N15308 1908 37 NA NA NOT_NAMED 1908-09-14 00:00:00 TS 25.7000 -75.5000 105 hurdat_atl main 256 256 O_____________ hurdat_atl AL061908 25.7000 -75.5000 HU 105 3 7 33
1908252N15308 1908 37 NA NA NOT_NAMED 1908-09-14 03:00:00 TS 25.9574 -75.3148 main 288 288 P_____________ AL061908 25.9574 -75.3148 HU 105 3 6 36
1908252N15308 1908 37 NA NA NOT_NAMED 1908-09-14 06:00:00 TS 26.2000 -75.1000 105 hurdat_atl main 315 315 O_____________ hurdat_atl AL061908 26.2000 -75.1000 HU 105 3 6 42
1908252N15308 1908 37 NA NA NOT_NAMED 1908-09-14 09:00:00 TS 26.4274 -74.8371 main 351 351 P_____________ AL061908 26.4274 -74.8371 HU 105 3 7 47
1908252N15308 1908 37 NA NA NOT_NAMED 1908-09-14 12:00:00 TS 26.7000 -74.5000 105 hurdat_atl main 392 392 O_____________ hurdat_atl AL061908 26.7000 -74.5000 HU 105 3 9 46
1908252N15308 1908 37 NA NA NOT_NAMED 1908-09-14 15:00:00 TS 27.0700 -74.0799 main 448 448 P_____________ AL061908 27.0700 -74.0799 HU 102 3 11 45
1908252N15308 1908 37 NA NA NOT_NAMED 1908-09-14 18:00:00 TS 27.5000 -73.6000 100 hurdat_atl main 513 513 O_____________ hurdat_atl AL061908 27.5000 -73.6000 HU 100 3 12 45
1908252N15308 1908 37 NA NA NOT_NAMED 1908-09-14 21:00:00 TS 27.9575 -73.0926 main 584 584 P_____________ AL061908 27.9576 -73.0926 HU 100 3 13 44
1908252N15308 1908 37 NA NA NOT_NAMED 1908-09-15 00:00:00 TS 28.4000 -72.6000 100 hurdat_atl main 650 650 O_____________ hurdat_atl AL061908 28.4000 -72.6000 HU 100 3 11 45
1908252N15308 1908 37 NA NA NOT_NAMED 1908-09-15 03:00:00 TS 28.7497 -72.1842 main 701 701 P_____________ AL061908 28.7497 -72.1842 HU 97 3 10 45
1908252N15308 1908 37 NA NA NOT_NAMED 1908-09-15 06:00:00 TS 29.1000 -71.8000 95 hurdat_atl main 758 746 O_____________ hurdat_atl AL061908 29.1000 -71.8000 HU 95 2 11 41
1908252N15308 1908 37 NA NA NOT_NAMED 1908-09-15 09:00:00 TS 29.5424 -71.3999 main 752 735 P_____________ AL061908 29.5424 -71.3999 HU 92 2 11 38
1908252N15308 1908 37 NA NA NOT_NAMED 1908-09-15 12:00:00 TS 30.0000 -71.0000 90 hurdat_atl main 735 724 O_____________ hurdat_atl AL061908 30.0000 -71.0000 HU 90 2 11 39
1908252N15308 1908 37 NA NA NOT_NAMED 1908-09-15 15:00:00 TS 30.4074 -70.5996 main 730 723 P_____________ AL061908 30.4074 -70.5996 HU 87 2 11 41
1908252N15308 1908 37 NA NA NOT_NAMED 1908-09-15 18:00:00 TS 30.8000 -70.2000 85 hurdat_atl main 729 729 O_____________ hurdat_atl AL061908 30.8000 -70.2000 HU 85 2 10 41
1908252N15308 1908 37 NA NA NOT_NAMED 1908-09-15 21:00:00 TS 31.1924 -69.7996 main 731 731 P_____________ AL061908 31.1924 -69.7996 HU 85 2 11 41
1908252N15308 1908 37 NA NA NOT_NAMED 1908-09-16 00:00:00 TS 31.6000 -69.4000 85 hurdat_atl main 732 725 O_____________ hurdat_atl AL061908 31.6000 -69.4000 HU 85 2 11 39
1908252N15308 1908 37 NA NA NOT_NAMED 1908-09-16 03:00:00 TS 32.0123 -69.0066 main 733 726 P_____________ AL061908 32.0123 -69.0066 HU 82 1 11 37
1908252N15308 1908 37 NA NA NOT_NAMED 1908-09-16 06:00:00 TS 32.5000 -68.6000 80 hurdat_atl main 732 728 O_____________ hurdat_atl AL061908 32.5000 -68.6000 HU 80 1 13 34
1908252N15308 1908 37 NA NA NOT_NAMED 1908-09-16 09:00:00 TS 33.1202 -68.1281 main 740 735 P_____________ AL061908 33.1202 -68.1281 HU 80 1 15 30
1908252N15308 1908 37 NA NA NOT_NAMED 1908-09-16 12:00:00 TS 33.8000 -67.7000 80 hurdat_atl main 744 740 O_____________ hurdat_atl AL061908 33.8000 -67.7000 HU 80 1 15 24
1908252N15308 1908 37 NA NA NOT_NAMED 1908-09-16 15:00:00 TS 34.4572 -67.4117 main 748 746 P_____________ AL061908 34.4572 -67.4117 HU 77 1 14 18
1908252N15308 1908 37 NA NA NOT_NAMED 1908-09-16 18:00:00 TS 35.1000 -67.2000 75 hurdat_atl main 753 716 O_____________ hurdat_atl AL061908 35.1000 -67.2000 HU 75 1 13 15
1908252N15308 1908 37 NA NA NOT_NAMED 1908-09-16 21:00:00 TS 35.6847 -67.0210 main 716 661 P_____________ AL061908 35.6847 -67.0210 HU 75 1 12 15
1908252N15308 1908 37 NA NA NOT_NAMED 1908-09-17 00:00:00 TS 36.3000 -66.8000 75 hurdat_atl main 661 602 O_____________ hurdat_atl AL061908 36.3000 -66.8000 HU 75 1 14 19
1908252N15308 1908 37 NA NA NOT_NAMED 1908-09-17 03:00:00 TS 37.0275 -66.4448 main 607 551 P_____________ AL061908 37.0275 -66.4448 HU 72 1 16 23
1908252N15308 1908 37 NA NA NOT_NAMED 1908-09-17 06:00:00 TS 37.8000 -66.0000 70 hurdat_atl main 551 515 O_____________ hurdat_atl AL061908 37.8000 -66.0000 HU 70 1 17 25
1908252N15308 1908 37 NA NA NOT_NAMED 1908-09-17 09:00:00 TS 38.5799 -65.5224 main 514 467 P_____________ AL061908 38.5799 -65.5224 HU 70 1 17 28
1908252N15308 1908 37 NA NA NOT_NAMED 1908-09-17 12:00:00 TS 39.3000 -65.0000 70 hurdat_atl main 467 405 O_____________ hurdat_atl AL061908 39.3000 -65.0000 HU 70 1 16 32
1908252N15308 1908 37 NA NA NOT_NAMED 1908-09-17 15:00:00 TS 39.9099 -64.4495 main 407 361 P_____________ AL061908 39.9099 -64.4495 HU 70 1 14 37
1908252N15308 1908 37 NA NA NOT_NAMED 1908-09-17 18:00:00 TS 40.4000 -63.9000 70 hurdat_atl main 363 338 O_____________ hurdat_atl AL061908 40.4000 -63.9000 HU 70 1 12 43
1908252N15308 1908 37 NA NA NOT_NAMED 1908-09-17 21:00:00 TS 40.7721 -63.3984 main 338 326 P_____________ AL061908 40.7721 -63.3984 HU 70 1 10 47
1908252N15308 1908 37 NA NA NOT_NAMED 1908-09-18 00:00:00 TS 41.1000 -62.9000 70 hurdat_atl main 331 321 O_____________ hurdat_atl AL061908 41.1000 -62.9000 HU 70 1 10 47
1908252N15308 1908 37 NA NA NOT_NAMED 1908-09-18 03:00:00 TS 41.4690 -62.4078 main 321 310 P_____________ AL061908 41.4690 -62.4078 HU 70 1 11 46
1908252N15308 1908 37 NA NA NOT_NAMED 1908-09-18 06:00:00 TS 41.9000 -61.8000 70 hurdat_atl main 313 299 O_____________ hurdat_atl AL061908 41.9000 -61.8000 HU 70 1 13 50
1908252N15308 1908 37 NA NA NOT_NAMED 1908-09-18 09:00:00 TS 42.3280 -61.0338 main 302 257 P_____________ AL061908 42.3280 -61.0338 HU 70 1 17 50
1908252N15308 1908 37 NA NA NOT_NAMED 1908-09-18 12:00:00 TS 43.0000 -60.0000 70 hurdat_atl main 259 222 O_____________ hurdat_atl AL061908 43.0000 -60.0000 HU 70 1 24 45
1908252N15308 1908 37 NA NA NOT_NAMED 1908-09-18 15:00:00 TS 44.0411 -58.6578 main 222 198 P_____________ AL061908 44.0411 -58.6578 HU 65 1 32 42
1908252N15308 1908 37 NA NA NOT_NAMED 1908-09-18 18:00:00 TS 45.4000 -57.0000 60 hurdat_atl main 184 13 O_____________ hurdat_atl AL061908 45.4000 -57.0000 TS 60 0 39 41
1908252N15308 1908 37 NA NA NOT_NAMED 1908-09-18 21:00:00 TS 46.9652 -55.0363 main 13 0 P_____________ AL061908 46.9652 -55.0363 TS 57 0 42 40
1908252N15308 1908 37 NA NA NOT_NAMED 1908-09-19 00:00:00 ET 48.6000 -53.0000 55 hurdat_atl main 7 7 O_____________ hurdat_atl AL061908 48.6000 -53.0000 EX 55 -4 40 39
1908252N15308 1908 37 NA NA NOT_NAMED 1908-09-19 03:00:00 ET 50.0983 -51.2215 main 187 187 P_____________ AL061908 50.0983 -51.2215 EX 55 -4 36 37
1908252N15308 1908 37 NA NA NOT_NAMED 1908-09-19 06:00:00 ET 51.5000 -49.6000 55 hurdat_atl main 367 367 O_____________ hurdat_atl AL061908 51.5000 -49.6000 EX 55 -4 34 37
1908252N15308 1908 37 NA NA NOT_NAMED 1908-09-19 09:00:00 ET 52.8003 -47.9887 main 512 512 P_____________ AL061908 52.8003 -47.9887 EX 52 -4 31 37
1908252N15308 1908 37 NA NA NOT_NAMED 1908-09-19 12:00:00 ET 54.0000 -46.5000 50 hurdat_atl main 614 543 O_____________ hurdat_atl AL061908 54.0000 -46.5000 EX 50 -4 29 36
1908252N15308 1908 37 NA NA NOT_NAMED 1908-09-19 15:00:00 ET 55.1226 -45.1310 main 542 433 P_____________ AL061908 55.1226 -45.1310 EX 50 -4 27 35
1908252N15308 1908 37 NA NA NOT_NAMED 1908-09-19 18:00:00 ET 56.2000 -43.8000 50 hurdat_atl main 423 O_____________ hurdat_atl AL061908 56.2000 -43.8000 EX 50 -4 26 35

IBTrACS Databaseについて

本データベースは、米国NOAAが公開する1842年以降の世界の熱帯低気圧のベストトラックデータアーカイブInternational Best Track Archive for Climate Stewardship (IBTrACS)を、ウェブで閲覧しやすい形式に変換したものです。

最終更新日:2021-10-08